sensor_id;sensor_type;location;lat;lon;timestamp;temperature;humidity
51615;DHT22;37695;52.960;6.188;2023-04-24T00:01:13;11.10;99.90
51615;DHT22;37695;52.960;6.188;2023-04-24T00:03:40;11.00;99.90
51615;DHT22;37695;52.960;6.188;2023-04-24T00:06:06;10.90;99.90
51615;DHT22;37695;52.960;6.188;2023-04-24T00:08:34;10.90;99.90
51615;DHT22;37695;52.960;6.188;2023-04-24T00:10:59;10.90;99.90
51615;DHT22;37695;52.960;6.188;2023-04-24T00:13:25;10.80;99.90
51615;DHT22;37695;52.960;6.188;2023-04-24T00:15:51;10.80;99.90
51615;DHT22;37695;52.960;6.188;2023-04-24T00:18:17;10.80;99.90
51615;DHT22;37695;52.960;6.188;2023-04-24T00:20:42;10.80;99.90
51615;DHT22;37695;52.960;6.188;2023-04-24T00:23:09;10.80;99.90
51615;DHT22;37695;52.960;6.188;2023-04-24T00:25:34;10.80;99.90
51615;DHT22;37695;52.960;6.188;2023-04-24T00:28:00;10.80;99.90
51615;DHT22;37695;52.960;6.188;2023-04-24T00:30:26;10.80;99.90
51615;DHT22;37695;52.960;6.188;2023-04-24T00:32:52;10.80;99.90
51615;DHT22;37695;52.960;6.188;2023-04-24T00:35:17;10.70;99.90
51615;DHT22;37695;52.960;6.188;2023-04-24T00:37:45;10.80;99.90
51615;DHT22;37695;52.960;6.188;2023-04-24T00:40:11;10.80;99.90
51615;DHT22;37695;52.960;6.188;2023-04-24T00:42:37;10.80;99.90
51615;DHT22;37695;52.960;6.188;2023-04-24T00:45:03;10.70;99.90
51615;DHT22;37695;52.960;6.188;2023-04-24T00:47:29;10.70;99.90
51615;DHT22;37695;52.960;6.188;2023-04-24T00:49:55;10.60;99.90
51615;DHT22;37695;52.960;6.188;2023-04-24T00:52:21;10.60;99.90
51615;DHT22;37695;52.960;6.188;2023-04-24T00:54:49;10.60;99.90
51615;DHT22;37695;52.960;6.188;2023-04-24T00:57:15;10.60;99.90
51615;DHT22;37695;52.960;6.188;2023-04-24T00:59:42;10.60;99.90
51615;DHT22;37695;52.960;6.188;2023-04-24T01:02:09;10.60;99.90
51615;DHT22;37695;52.960;6.188;2023-04-24T01:04:36;10.60;99.90
51615;DHT22;37695;52.960;6.188;2023-04-24T01:07:03;10.60;99.90
51615;DHT22;37695;52.960;6.188;2023-04-24T01:09:30;10.60;99.90
51615;DHT22;37695;52.960;6.188;2023-04-24T01:11:55;10.60;99.90
51615;DHT22;37695;52.960;6.188;2023-04-24T01:14:22;10.60;99.90
51615;DHT22;37695;52.960;6.188;2023-04-24T01:16:47;10.60;99.90
51615;DHT22;37695;52.960;6.188;2023-04-24T01:19:14;10.70;99.90
51615;DHT22;37695;52.960;6.188;2023-04-24T01:21:41;10.70;99.90
51615;DHT22;37695;52.960;6.188;2023-04-24T01:24:08;10.70;99.90
51615;DHT22;37695;52.960;6.188;2023-04-24T01:26:34;10.70;99.90
51615;DHT22;37695;52.960;6.188;2023-04-24T01:29:00;10.70;99.90
51615;DHT22;37695;52.960;6.188;2023-04-24T01:31:25;10.70;99.90
51615;DHT22;37695;52.960;6.188;2023-04-24T01:33:51;10.70;99.90
51615;DHT22;37695;52.960;6.188;2023-04-24T01:36:18;10.70;99.90
51615;DHT22;37695;52.960;6.188;2023-04-24T01:38:44;10.70;99.90
51615;DHT22;37695;52.960;6.188;2023-04-24T01:41:10;10.70;99.90
51615;DHT22;37695;52.960;6.188;2023-04-24T01:43:35;10.70;99.90
51615;DHT22;37695;52.960;6.188;2023-04-24T01:46:01;10.70;99.90
51615;DHT22;37695;52.960;6.188;2023-04-24T01:48:27;10.70;99.90
51615;DHT22;37695;52.960;6.188;2023-04-24T01:50:52;10.80;99.90
51615;DHT22;37695;52.960;6.188;2023-04-24T01:53:18;10.80;99.90
51615;DHT22;37695;52.960;6.188;2023-04-24T01:55:43;10.70;99.90
51615;DHT22;37695;52.960;6.188;2023-04-24T01:58:09;10.70;99.90
51615;DHT22;37695;52.960;6.188;2023-04-24T02:00:35;10.70;99.90
51615;DHT22;37695;52.960;6.188;2023-04-24T02:03:00;10.70;99.90
51615;DHT22;37695;52.960;6.188;2023-04-24T02:05:27;10.70;99.90
51615;DHT22;37695;52.960;6.188;2023-04-24T02:07:53;10.70;99.90
51615;DHT22;37695;52.960;6.188;2023-04-24T02:10:19;10.80;99.90
51615;DHT22;37695;52.960;6.188;2023-04-24T02:12:44;10.70;99.90
51615;DHT22;37695;52.960;6.188;2023-04-24T02:15:10;10.70;99.90
51615;DHT22;37695;52.960;6.188;2023-04-24T02:17:36;10.70;99.90
51615;DHT22;37695;52.960;6.188;2023-04-24T02:20:02;10.80;99.90
51615;DHT22;37695;52.960;6.188;2023-04-24T02:22:27;10.70;99.90
51615;DHT22;37695;52.960;6.188;2023-04-24T02:24:53;10.70;99.90
51615;DHT22;37695;52.960;6.188;2023-04-24T02:27:18;10.70;99.90
51615;DHT22;37695;52.960;6.188;2023-04-24T02:29:44;10.70;99.90
51615;DHT22;37695;52.960;6.188;2023-04-24T02:32:10;10.70;99.90
51615;DHT22;37695;52.960;6.188;2023-04-24T02:34:37;10.70;99.90
51615;DHT22;37695;52.960;6.188;2023-04-24T02:37:03;10.70;99.90
51615;DHT22;37695;52.960;6.188;2023-04-24T02:39:28;10.80;99.90
51615;DHT22;37695;52.960;6.188;2023-04-24T02:41:54;10.80;99.90
51615;DHT22;37695;52.960;6.188;2023-04-24T02:44:19;10.70;99.90
51615;DHT22;37695;52.960;6.188;2023-04-24T02:46:47;10.80;99.90
51615;DHT22;37695;52.960;6.188;2023-04-24T02:49:12;10.70;99.90
51615;DHT22;37695;52.960;6.188;2023-04-24T02:51:38;10.80;99.90
51615;DHT22;37695;52.960;6.188;2023-04-24T02:54:07;10.80;99.90
51615;DHT22;37695;52.960;6.188;2023-04-24T02:56:32;10.80;99.90
51615;DHT22;37695;52.960;6.188;2023-04-24T02:58:58;10.70;99.90
51615;DHT22;37695;52.960;6.188;2023-04-24T03:01:23;10.70;99.90
51615;DHT22;37695;52.960;6.188;2023-04-24T03:03:49;10.70;99.90
51615;DHT22;37695;52.960;6.188;2023-04-24T03:06:14;10.70;99.90
51615;DHT22;37695;52.960;6.188;2023-04-24T03:08:40;10.70;99.90
51615;DHT22;37695;52.960;6.188;2023-04-24T03:11:06;10.70;99.90
51615;DHT22;37695;52.960;6.188;2023-04-24T03:13:31;10.70;99.90
51615;DHT22;37695;52.960;6.188;2023-04-24T03:15:57;10.60;99.90
51615;DHT22;37695;52.960;6.188;2023-04-24T03:18:22;10.60;99.90
51615;DHT22;37695;52.960;6.188;2023-04-24T03:20:48;10.60;99.90
51615;DHT22;37695;52.960;6.188;2023-04-24T03:23:14;10.60;99.90
51615;DHT22;37695;52.960;6.188;2023-04-24T03:25:39;10.60;99.90
51615;DHT22;37695;52.960;6.188;2023-04-24T03:28:06;10.60;99.90
51615;DHT22;37695;52.960;6.188;2023-04-24T03:30:31;10.60;99.90
51615;DHT22;37695;52.960;6.188;2023-04-24T03:32:57;10.60;99.90
51615;DHT22;37695;52.960;6.188;2023-04-24T03:35:22;10.60;99.90
51615;DHT22;37695;52.960;6.188;2023-04-24T03:37:48;10.60;99.90
51615;DHT22;37695;52.960;6.188;2023-04-24T03:40:13;10.60;99.90
51615;DHT22;37695;52.960;6.188;2023-04-24T03:42:39;10.60;99.90
51615;DHT22;37695;52.960;6.188;2023-04-24T03:45:05;10.60;99.90
51615;DHT22;37695;52.960;6.188;2023-04-24T03:47:31;10.60;99.90
51615;DHT22;37695;52.960;6.188;2023-04-24T03:49:56;10.60;99.90
51615;DHT22;37695;52.960;6.188;2023-04-24T03:52:22;10.60;99.90
51615;DHT22;37695;52.960;6.188;2023-04-24T03:54:48;10.50;99.90
51615;DHT22;37695;52.960;6.188;2023-04-24T03:57:13;10.60;99.90
51615;DHT22;37695;52.960;6.188;2023-04-24T03:59:39;10.50;99.90
51615;DHT22;37695;52.960;6.188;2023-04-24T04:02:04;10.50;99.90
51615;DHT22;37695;52.960;6.188;2023-04-24T04:04:30;10.50;99.90
51615;DHT22;37695;52.960;6.188;2023-04-24T04:06:55;10.50;99.90
51615;DHT22;37695;52.960;6.188;2023-04-24T04:09:21;10.50;99.90
51615;DHT22;37695;52.960;6.188;2023-04-24T04:11:46;10.50;99.90
51615;DHT22;37695;52.960;6.188;2023-04-24T04:14:12;10.50;99.90
51615;DHT22;37695;52.960;6.188;2023-04-24T04:16:37;10.50;99.90
51615;DHT22;37695;52.960;6.188;2023-04-24T04:19:03;10.50;99.90
51615;DHT22;37695;52.960;6.188;2023-04-24T04:21:29;10.50;99.90
51615;DHT22;37695;52.960;6.188;2023-04-24T04:23:56;10.50;99.90
51615;DHT22;37695;52.960;6.188;2023-04-24T04:26:22;10.50;99.90
51615;DHT22;37695;52.960;6.188;2023-04-24T04:28:51;10.50;99.90
51615;DHT22;37695;52.960;6.188;2023-04-24T04:31:16;10.50;99.90
51615;DHT22;37695;52.960;6.188;2023-04-24T04:33:42;10.50;99.90
51615;DHT22;37695;52.960;6.188;2023-04-24T04:36:07;10.50;99.90
51615;DHT22;37695;52.960;6.188;2023-04-24T04:38:34;10.60;99.90
51615;DHT22;37695;52.960;6.188;2023-04-24T04:41:00;10.50;99.90
51615;DHT22;37695;52.960;6.188;2023-04-24T04:43:26;10.50;99.90
51615;DHT22;37695;52.960;6.188;2023-04-24T04:45:52;10.50;99.90
51615;DHT22;37695;52.960;6.188;2023-04-24T04:48:18;10.50;99.90
51615;DHT22;37695;52.960;6.188;2023-04-24T04:50:44;10.50;99.90
51615;DHT22;37695;52.960;6.188;2023-04-24T04:53:09;10.40;99.90
51615;DHT22;37695;52.960;6.188;2023-04-24T04:55:36;10.40;99.90
51615;DHT22;37695;52.960;6.188;2023-04-24T04:58:02;10.40;99.90
51615;DHT22;37695;52.960;6.188;2023-04-24T05:00:27;10.40;99.90
51615;DHT22;37695;52.960;6.188;2023-04-24T05:02:54;10.40;99.90
51615;DHT22;37695;52.960;6.188;2023-04-24T05:05:19;10.30;99.90
51615;DHT22;37695;52.960;6.188;2023-04-24T05:07:45;10.30;99.90
51615;DHT22;37695;52.960;6.188;2023-04-24T05:10:11;10.30;99.90
51615;DHT22;37695;52.960;6.188;2023-04-24T05:12:36;10.30;99.90
51615;DHT22;37695;52.960;6.188;2023-04-24T05:15:03;10.30;99.90
51615;DHT22;37695;52.960;6.188;2023-04-24T05:17:29;10.30;99.90
51615;DHT22;37695;52.960;6.188;2023-04-24T05:19:54;10.30;99.90
51615;DHT22;37695;52.960;6.188;2023-04-24T05:22:20;10.30;99.90
51615;DHT22;37695;52.960;6.188;2023-04-24T05:24:47;10.30;99.90
51615;DHT22;37695;52.960;6.188;2023-04-24T05:27:13;10.30;99.90
51615;DHT22;37695;52.960;6.188;2023-04-24T05:29:39;10.30;99.90
51615;DHT22;37695;52.960;6.188;2023-04-24T05:32:05;10.30;99.90
51615;DHT22;37695;52.960;6.188;2023-04-24T05:34:31;10.30;99.90
51615;DHT22;37695;52.960;6.188;2023-04-24T05:36:56;10.30;99.90
51615;DHT22;37695;52.960;6.188;2023-04-24T05:39:22;10.30;99.90
51615;DHT22;37695;52.960;6.188;2023-04-24T05:41:50;10.30;99.90
51615;DHT22;37695;52.960;6.188;2023-04-24T05:44:15;10.20;99.90
51615;DHT22;37695;52.960;6.188;2023-04-24T05:46:41;10.30;99.90
51615;DHT22;37695;52.960;6.188;2023-04-24T05:49:07;10.30;99.90
51615;DHT22;37695;52.960;6.188;2023-04-24T05:51:32;10.30;99.90
51615;DHT22;37695;52.960;6.188;2023-04-24T05:53:58;10.30;99.90
51615;DHT22;37695;52.960;6.188;2023-04-24T05:56:23;10.30;99.90
51615;DHT22;37695;52.960;6.188;2023-04-24T05:58:49;10.30;99.90
51615;DHT22;37695;52.960;6.188;2023-04-24T06:01:14;10.30;99.90
51615;DHT22;37695;52.960;6.188;2023-04-24T06:03:41;10.30;99.90
51615;DHT22;37695;52.960;6.188;2023-04-24T06:06:07;10.30;99.90
51615;DHT22;37695;52.960;6.188;2023-04-24T06:08:33;10.30;99.90
51615;DHT22;37695;52.960;6.188;2023-04-24T06:10:59;10.30;99.90
51615;DHT22;37695;52.960;6.188;2023-04-24T06:13:24;10.20;99.90
51615;DHT22;37695;52.960;6.188;2023-04-24T06:15:50;10.20;99.90
51615;DHT22;37695;52.960;6.188;2023-04-24T06:18:16;10.20;99.90
51615;DHT22;37695;52.960;6.188;2023-04-24T06:20:42;10.20;99.90
51615;DHT22;37695;52.960;6.188;2023-04-24T06:23:07;10.20;99.90
51615;DHT22;37695;52.960;6.188;2023-04-24T06:25:33;10.20;99.90
51615;DHT22;37695;52.960;6.188;2023-04-24T06:27:58;10.30;99.90
51615;DHT22;37695;52.960;6.188;2023-04-24T06:30:24;10.30;99.90
51615;DHT22;37695;52.960;6.188;2023-04-24T06:32:50;10.30;99.90
51615;DHT22;37695;52.960;6.188;2023-04-24T06:35:16;10.20;99.90
51615;DHT22;37695;52.960;6.188;2023-04-24T06:37:42;10.30;99.90
51615;DHT22;37695;52.960;6.188;2023-04-24T06:40:08;10.30;99.90
51615;DHT22;37695;52.960;6.188;2023-04-24T06:42:34;10.30;99.90
51615;DHT22;37695;52.960;6.188;2023-04-24T06:45:00;10.30;99.90
51615;DHT22;37695;52.960;6.188;2023-04-24T06:47:26;10.30;99.90
51615;DHT22;37695;52.960;6.188;2023-04-24T06:49:51;10.20;99.90
51615;DHT22;37695;52.960;6.188;2023-04-24T06:52:18;10.20;99.90
51615;DHT22;37695;52.960;6.188;2023-04-24T06:54:44;10.20;99.90
51615;DHT22;37695;52.960;6.188;2023-04-24T06:57:10;10.20;99.90
51615;DHT22;37695;52.960;6.188;2023-04-24T06:59:36;10.30;99.90
51615;DHT22;37695;52.960;6.188;2023-04-24T07:02:01;10.30;99.90
51615;DHT22;37695;52.960;6.188;2023-04-24T07:04:28;10.30;99.90
51615;DHT22;37695;52.960;6.188;2023-04-24T07:06:54;10.30;99.90
51615;DHT22;37695;52.960;6.188;2023-04-24T07:09:21;10.30;99.90
51615;DHT22;37695;52.960;6.188;2023-04-24T07:11:47;10.30;99.90
51615;DHT22;37695;52.960;6.188;2023-04-24T07:14:13;10.30;99.90
51615;DHT22;37695;52.960;6.188;2023-04-24T07:16:39;10.30;99.90
51615;DHT22;37695;52.960;6.188;2023-04-24T07:19:04;10.30;99.90
51615;DHT22;37695;52.960;6.188;2023-04-24T07:21:30;10.30;99.90
51615;DHT22;37695;52.960;6.188;2023-04-24T07:23:57;10.20;99.90
51615;DHT22;37695;52.960;6.188;2023-04-24T07:26:23;10.20;99.90
51615;DHT22;37695;52.960;6.188;2023-04-24T07:28:49;10.20;99.90
51615;DHT22;37695;52.960;6.188;2023-04-24T07:31:14;10.20;99.90
51615;DHT22;37695;52.960;6.188;2023-04-24T07:33:40;10.20;99.90
51615;DHT22;37695;52.960;6.188;2023-04-24T07:36:06;10.10;99.90
51615;DHT22;37695;52.960;6.188;2023-04-24T07:38:31;10.10;99.90
51615;DHT22;37695;52.960;6.188;2023-04-24T07:40:57;10.10;99.90
51615;DHT22;37695;52.960;6.188;2023-04-24T07:43:23;10.00;99.90
51615;DHT22;37695;52.960;6.188;2023-04-24T07:45:50;10.10;99.90
51615;DHT22;37695;52.960;6.188;2023-04-24T07:48:16;10.10;99.90
51615;DHT22;37695;52.960;6.188;2023-04-24T07:50:43;10.00;99.90
51615;DHT22;37695;52.960;6.188;2023-04-24T07:53:09;10.00;99.90
51615;DHT22;37695;52.960;6.188;2023-04-24T07:55:34;9.90;99.90
51615;DHT22;37695;52.960;6.188;2023-04-24T07:58:00;9.90;99.90
51615;DHT22;37695;52.960;6.188;2023-04-24T08:00:25;9.80;99.90
51615;DHT22;37695;52.960;6.188;2023-04-24T08:02:51;9.80;99.90
51615;DHT22;37695;52.960;6.188;2023-04-24T08:05:17;9.80;99.90
51615;DHT22;37695;52.960;6.188;2023-04-24T08:07:42;9.80;99.90
51615;DHT22;37695;52.960;6.188;2023-04-24T08:10:10;9.80;99.90
51615;DHT22;37695;52.960;6.188;2023-04-24T08:12:36;9.70;99.90
51615;DHT22;37695;52.960;6.188;2023-04-24T08:15:02;9.60;99.90
51615;DHT22;37695;52.960;6.188;2023-04-24T08:17:27;9.60;99.90
51615;DHT22;37695;52.960;6.188;2023-04-24T08:19:53;9.60;99.90
51615;DHT22;37695;52.960;6.188;2023-04-24T08:22:24;9.50;99.90
51615;DHT22;37695;52.960;6.188;2023-04-24T08:24:50;9.50;99.90
51615;DHT22;37695;52.960;6.188;2023-04-24T08:27:15;9.50;99.90
51615;DHT22;37695;52.960;6.188;2023-04-24T08:29:41;9.50;99.90
51615;DHT22;37695;52.960;6.188;2023-04-24T08:32:06;9.50;99.90
51615;DHT22;37695;52.960;6.188;2023-04-24T08:34:32;9.50;99.90
51615;DHT22;37695;52.960;6.188;2023-04-24T08:36:58;9.60;99.90
51615;DHT22;37695;52.960;6.188;2023-04-24T08:39:23;9.60;99.90
51615;DHT22;37695;52.960;6.188;2023-04-24T08:41:50;9.60;99.90
51615;DHT22;37695;52.960;6.188;2023-04-24T08:44:17;9.60;99.90
51615;DHT22;37695;52.960;6.188;2023-04-24T08:46:45;9.60;99.90
51615;DHT22;37695;52.960;6.188;2023-04-24T08:49:15;9.70;99.90
51615;DHT22;37695;52.960;6.188;2023-04-24T08:51:44;9.60;99.90
51615;DHT22;37695;52.960;6.188;2023-04-24T08:54:12;9.00;99.90
51615;DHT22;37695;52.960;6.188;2023-04-24T08:56:38;9.70;99.90
51615;DHT22;37695;52.960;6.188;2023-04-24T08:59:06;9.80;99.90
51615;DHT22;37695;52.960;6.188;2023-04-24T09:01:32;9.90;99.90
51615;DHT22;37695;52.960;6.188;2023-04-24T09:04:01;9.90;99.90
51615;DHT22;37695;52.960;6.188;2023-04-24T09:06:27;9.90;99.90
51615;DHT22;37695;52.960;6.188;2023-04-24T09:08:54;9.80;99.90
51615;DHT22;37695;52.960;6.188;2023-04-24T09:11:21;9.80;99.90
51615;DHT22;37695;52.960;6.188;2023-04-24T09:13:49;9.80;99.90
51615;DHT22;37695;52.960;6.188;2023-04-24T09:16:16;9.70;99.90
51615;DHT22;37695;52.960;6.188;2023-04-24T09:18:41;9.70;99.90
51615;DHT22;37695;52.960;6.188;2023-04-24T09:21:08;9.70;99.90
51615;DHT22;37695;52.960;6.188;2023-04-24T09:23:34;9.80;99.90
51615;DHT22;37695;52.960;6.188;2023-04-24T09:26:02;9.80;99.90
51615;DHT22;37695;52.960;6.188;2023-04-24T09:28:35;9.90;99.90
51615;DHT22;37695;52.960;6.188;2023-04-24T09:33:32;10.00;99.90
51615;DHT22;37695;52.960;6.188;2023-04-24T09:35:58;10.10;99.90
51615;DHT22;37695;52.960;6.188;2023-04-24T09:38:53;10.30;99.90
51615;DHT22;37695;52.960;6.188;2023-04-24T09:41:19;10.40;99.90
51615;DHT22;37695;52.960;6.188;2023-04-24T09:43:45;10.50;99.90
51615;DHT22;37695;52.960;6.188;2023-04-24T09:46:10;10.60;99.90
51615;DHT22;37695;52.960;6.188;2023-04-24T09:48:37;10.60;99.90
51615;DHT22;37695;52.960;6.188;2023-04-24T09:51:04;10.60;99.90
51615;DHT22;37695;52.960;6.188;2023-04-24T09:53:32;10.50;99.90
51615;DHT22;37695;52.960;6.188;2023-04-24T09:56:16;10.40;99.90
51615;DHT22;37695;52.960;6.188;2023-04-24T09:58:41;10.30;99.90
51615;DHT22;37695;52.960;6.188;2023-04-24T10:01:07;10.20;99.90
51615;DHT22;37695;52.960;6.188;2023-04-24T10:03:33;10.10;99.90
51615;DHT22;37695;52.960;6.188;2023-04-24T10:06:00;10.00;99.90
51615;DHT22;37695;52.960;6.188;2023-04-24T10:08:26;10.00;99.90
51615;DHT22;37695;52.960;6.188;2023-04-24T10:10:58;10.00;99.90
51615;DHT22;37695;52.960;6.188;2023-04-24T10:13:24;9.90;99.90
51615;DHT22;37695;52.960;6.188;2023-04-24T10:15:50;9.70;99.90
51615;DHT22;37695;52.960;6.188;2023-04-24T10:18:16;9.80;99.90
51615;DHT22;37695;52.960;6.188;2023-04-24T10:20:42;9.70;99.90
51615;DHT22;37695;52.960;6.188;2023-04-24T10:23:07;9.70;99.90
51615;DHT22;37695;52.960;6.188;2023-04-24T10:25:34;9.70;99.90
51615;DHT22;37695;52.960;6.188;2023-04-24T10:28:01;9.80;99.90
51615;DHT22;37695;52.960;6.188;2023-04-24T10:30:32;9.80;99.90
51615;DHT22;37695;52.960;6.188;2023-04-24T10:33:02;9.90;99.90
51615;DHT22;37695;52.960;6.188;2023-04-24T10:35:31;10.00;99.90
51615;DHT22;37695;52.960;6.188;2023-04-24T10:38:01;10.10;99.90
51615;DHT22;37695;52.960;6.188;2023-04-24T10:40:33;10.20;99.90
51615;DHT22;37695;52.960;6.188;2023-04-24T10:43:02;10.20;99.90
51615;DHT22;37695;52.960;6.188;2023-04-24T10:45:28;10.20;99.90
51615;DHT22;37695;52.960;6.188;2023-04-24T10:48:01;10.10;99.90
51615;DHT22;37695;52.960;6.188;2023-04-24T10:50:29;10.10;99.90
51615;DHT22;37695;52.960;6.188;2023-04-24T10:53:05;10.10;99.90
51615;DHT22;37695;52.960;6.188;2023-04-24T10:55:44;10.00;99.90
51615;DHT22;37695;52.960;6.188;2023-04-24T10:58:11;10.00;99.90
51615;DHT22;37695;52.960;6.188;2023-04-24T11:00:38;9.90;99.90
51615;DHT22;37695;52.960;6.188;2023-04-24T11:03:27;9.90;99.90
51615;DHT22;37695;52.960;6.188;2023-04-24T11:11:11;10.20;99.90
51615;DHT22;37695;52.960;6.188;2023-04-24T11:16:21;10.50;99.90
51615;DHT22;37695;52.960;6.188;2023-04-24T11:19:01;10.60;99.90
51615;DHT22;37695;52.960;6.188;2023-04-24T11:29:51;10.20;99.90
51615;DHT22;37695;52.960;6.188;2023-04-24T11:35:13;10.10;99.90
51615;DHT22;37695;52.960;6.188;2023-04-24T11:37:40;10.10;99.90
51615;DHT22;37695;52.960;6.188;2023-04-24T11:40:11;10.20;99.90
51615;DHT22;37695;52.960;6.188;2023-04-24T11:42:38;10.10;99.90
51615;DHT22;37695;52.960;6.188;2023-04-24T11:47:35;10.20;99.90
51615;DHT22;37695;52.960;6.188;2023-04-24T11:50:01;10.20;99.90
51615;DHT22;37695;52.960;6.188;2023-04-24T11:52:28;10.20;99.90
51615;DHT22;37695;52.960;6.188;2023-04-24T11:54:54;10.20;99.90
51615;DHT22;37695;52.960;6.188;2023-04-24T11:57:21;10.20;99.90
51615;DHT22;37695;52.960;6.188;2023-04-24T11:59:47;10.30;99.90
51615;DHT22;37695;52.960;6.188;2023-04-24T12:02:25;10.50;99.90
51615;DHT22;37695;52.960;6.188;2023-04-24T12:04:52;10.70;99.90
51615;DHT22;37695;52.960;6.188;2023-04-24T12:07:18;10.80;99.90
51615;DHT22;37695;52.960;6.188;2023-04-24T12:09:46;10.90;99.90
51615;DHT22;37695;52.960;6.188;2023-04-24T12:12:16;10.90;99.90
51615;DHT22;37695;52.960;6.188;2023-04-24T12:14:49;10.80;99.90
51615;DHT22;37695;52.960;6.188;2023-04-24T12:17:16;10.70;99.90
51615;DHT22;37695;52.960;6.188;2023-04-24T12:19:48;10.60;99.90
51615;DHT22;37695;52.960;6.188;2023-04-24T12:22:14;10.40;99.90
51615;DHT22;37695;52.960;6.188;2023-04-24T12:24:56;10.40;99.90
51615;DHT22;37695;52.960;6.188;2023-04-24T12:27:22;10.60;99.90
51615;DHT22;37695;52.960;6.188;2023-04-24T12:29:58;10.60;99.90
51615;DHT22;37695;52.960;6.188;2023-04-24T12:32:24;10.70;99.90
51615;DHT22;37695;52.960;6.188;2023-04-24T12:34:53;10.60;99.90
51615;DHT22;37695;52.960;6.188;2023-04-24T12:37:19;10.60;99.90
51615;DHT22;37695;52.960;6.188;2023-04-24T12:40:01;10.40;99.90
51615;DHT22;37695;52.960;6.188;2023-04-24T12:42:28;10.40;99.90
51615;DHT22;37695;52.960;6.188;2023-04-24T12:45:01;10.30;99.90
51615;DHT22;37695;52.960;6.188;2023-04-24T12:47:27;10.40;99.90
51615;DHT22;37695;52.960;6.188;2023-04-24T12:49:53;10.60;99.90
51615;DHT22;37695;52.960;6.188;2023-04-24T12:52:21;10.50;99.90
51615;DHT22;37695;52.960;6.188;2023-04-24T12:54:47;10.60;99.90
51615;DHT22;37695;52.960;6.188;2023-04-24T12:57:12;10.60;99.90
51615;DHT22;37695;52.960;6.188;2023-04-24T12:59:38;10.60;99.90
51615;DHT22;37695;52.960;6.188;2023-04-24T13:02:05;10.50;99.90
51615;DHT22;37695;52.960;6.188;2023-04-24T13:04:31;10.40;99.90
51615;DHT22;37695;52.960;6.188;2023-04-24T13:06:57;10.30;99.90
51615;DHT22;37695;52.960;6.188;2023-04-24T13:09:23;10.00;99.90
51615;DHT22;37695;52.960;6.188;2023-04-24T13:11:49;9.90;99.90
51615;DHT22;37695;52.960;6.188;2023-04-24T13:14:15;9.80;99.90
51615;DHT22;37695;52.960;6.188;2023-04-24T13:16:41;9.80;99.90
51615;DHT22;37695;52.960;6.188;2023-04-24T13:19:06;9.80;99.90
51615;DHT22;37695;52.960;6.188;2023-04-24T13:21:32;9.90;99.90
51615;DHT22;37695;52.960;6.188;2023-04-24T13:23:57;10.00;99.90
51615;DHT22;37695;52.960;6.188;2023-04-24T13:26:23;10.00;99.90
51615;DHT22;37695;52.960;6.188;2023-04-24T13:28:48;10.10;99.90
51615;DHT22;37695;52.960;6.188;2023-04-24T13:31:14;10.10;99.90
51615;DHT22;37695;52.960;6.188;2023-04-24T13:33:40;10.20;99.90
51615;DHT22;37695;52.960;6.188;2023-04-24T13:36:05;10.30;99.90
51615;DHT22;37695;52.960;6.188;2023-04-24T13:38:31;10.40;99.90
51615;DHT22;37695;52.960;6.188;2023-04-24T13:40:57;10.50;99.90
51615;DHT22;37695;52.960;6.188;2023-04-24T13:43:22;10.40;99.90
51615;DHT22;37695;52.960;6.188;2023-04-24T13:45:48;10.20;99.90
51615;DHT22;37695;52.960;6.188;2023-04-24T13:48:14;10.10;99.90
51615;DHT22;37695;52.960;6.188;2023-04-24T13:50:41;10.00;99.90
51615;DHT22;37695;52.960;6.188;2023-04-24T13:53:07;10.00;99.90
51615;DHT22;37695;52.960;6.188;2023-04-24T13:55:32;10.10;99.90
51615;DHT22;37695;52.960;6.188;2023-04-24T13:57:58;10.10;99.90
51615;DHT22;37695;52.960;6.188;2023-04-24T14:00:24;10.00;99.90
51615;DHT22;37695;52.960;6.188;2023-04-24T14:02:49;10.00;99.90
51615;DHT22;37695;52.960;6.188;2023-04-24T14:05:15;10.00;99.90
51615;DHT22;37695;52.960;6.188;2023-04-24T14:07:41;9.90;99.90
51615;DHT22;37695;52.960;6.188;2023-04-24T14:10:07;9.90;99.90
51615;DHT22;37695;52.960;6.188;2023-04-24T14:12:33;9.70;99.90
51615;DHT22;37695;52.960;6.188;2023-04-24T14:14:59;9.70;99.90
51615;DHT22;37695;52.960;6.188;2023-04-24T14:17:24;9.70;99.90
51615;DHT22;37695;52.960;6.188;2023-04-24T14:19:50;9.70;99.90
51615;DHT22;37695;52.960;6.188;2023-04-24T14:22:17;9.80;99.90
51615;DHT22;37695;52.960;6.188;2023-04-24T14:24:42;9.70;99.90
51615;DHT22;37695;52.960;6.188;2023-04-24T14:27:08;9.70;99.90
51615;DHT22;37695;52.960;6.188;2023-04-24T14:29:34;9.70;99.90
51615;DHT22;37695;52.960;6.188;2023-04-24T14:31:59;9.70;99.90
51615;DHT22;37695;52.960;6.188;2023-04-24T14:34:25;9.70;99.90
51615;DHT22;37695;52.960;6.188;2023-04-24T14:36:52;9.70;99.90
51615;DHT22;37695;52.960;6.188;2023-04-24T14:39:17;9.80;99.90
51615;DHT22;37695;52.960;6.188;2023-04-24T14:41:43;9.70;99.90
51615;DHT22;37695;52.960;6.188;2023-04-24T14:44:09;9.80;99.90
51615;DHT22;37695;52.960;6.188;2023-04-24T14:46:34;9.80;99.90
51615;DHT22;37695;52.960;6.188;2023-04-24T14:49:00;9.90;99.90
51615;DHT22;37695;52.960;6.188;2023-04-24T14:51:25;9.90;99.90
51615;DHT22;37695;52.960;6.188;2023-04-24T14:53:52;10.00;99.90
51615;DHT22;37695;52.960;6.188;2023-04-24T14:56:18;10.00;99.90
51615;DHT22;37695;52.960;6.188;2023-04-24T14:58:43;9.90;99.90
51615;DHT22;37695;52.960;6.188;2023-04-24T15:01:09;9.80;99.90
51615;DHT22;37695;52.960;6.188;2023-04-24T15:03:35;9.60;99.90
51615;DHT22;37695;52.960;6.188;2023-04-24T15:06:01;9.60;99.90
51615;DHT22;37695;52.960;6.188;2023-04-24T15:08:27;9.60;99.90
51615;DHT22;37695;52.960;6.188;2023-04-24T15:10:52;9.60;99.90
51615;DHT22;37695;52.960;6.188;2023-04-24T15:13:18;9.70;99.90
51615;DHT22;37695;52.960;6.188;2023-04-24T15:15:46;9.80;99.90
51615;DHT22;37695;52.960;6.188;2023-04-24T15:18:12;9.70;99.90
51615;DHT22;37695;52.960;6.188;2023-04-24T15:20:38;9.70;99.90
51615;DHT22;37695;52.960;6.188;2023-04-24T15:23:09;9.70;99.90
51615;DHT22;37695;52.960;6.188;2023-04-24T15:25:36;9.50;99.90
51615;DHT22;37695;52.960;6.188;2023-04-24T15:28:02;9.40;99.90
51615;DHT22;37695;52.960;6.188;2023-04-24T15:30:30;9.40;99.90
51615;DHT22;37695;52.960;6.188;2023-04-24T15:32:55;9.30;99.90
51615;DHT22;37695;52.960;6.188;2023-04-24T15:35:21;9.30;99.90
51615;DHT22;37695;52.960;6.188;2023-04-24T15:37:46;9.30;99.90
51615;DHT22;37695;52.960;6.188;2023-04-24T15:40:13;9.30;99.90
51615;DHT22;37695;52.960;6.188;2023-04-24T15:42:41;9.30;99.90
51615;DHT22;37695;52.960;6.188;2023-04-24T15:45:08;9.30;99.90
51615;DHT22;37695;52.960;6.188;2023-04-24T15:47:34;9.30;99.90
51615;DHT22;37695;52.960;6.188;2023-04-24T15:50:00;9.20;99.90
51615;DHT22;37695;52.960;6.188;2023-04-24T15:52:26;9.20;99.90
51615;DHT22;37695;52.960;6.188;2023-04-24T15:54:51;9.20;99.90